Crosby Leader — WDF3561 — position and weather

sailwx.info

Track history (hours):
 
Tides and Currents Weather Stations Pressure Air Temp Water Temp Dewpoint Dewpoint Depression Visibility Wind Speed Wind Dir Waves Ship Positions

Crosby Leader

Owner: Crosby Marine Transportation LLC, Golden Meadow, LA. More information available from US FCC via Universal Licensing System and Coast Guard Vessel Documentation Center.

Last reported at 2018-May-08 12:37 UTC. Time now 2018-May-24 08:12 UTC.
Position N 29°07' W 090°12'.
Warning: this ship's position is 15 days out of date.

Length 43 m.

Type: Tug. MMSI: 367441370.

Date/timePositionNaut miles runAvg speedWind from/ knotsBaromVisibWave heightAir tempDewpointWater temp
2018-May-08 12:37N 29°07' W 090°12'0 0.0
2018-May-08 12:23N 29°07' W 090°12'0 0.0
2018-May-08 10:40N 29°07' W 090°12'0 0.0
2018-May-08 10:31N 29°07' W 090°12'0 0.0
2018-May-08 10:00N 29°07' W 090°12'0 0.0
2018-May-08 09:30N 29°07' W 090°12'0 0.0
2018-May-08 09:00N 29°07' W 090°12'0 0.0
2018-May-08 08:30N 29°07' W 090°12'0 0.0
2018-May-08 08:01N 29°07' W 090°12'0 0.0
2018-May-08 07:31N 29°07' W 090°12'0 0.0
2018-May-08 07:00N 29°07' W 090°12'0 0.0
2018-May-08 06:30N 29°07' W 090°12'0 0.0
2018-May-08 06:00N 29°07' W 090°12'  
2018-May-05 03:18N 29°18' W 092°46'4 9.9
2018-May-05 02:56N 29°20' W 092°50'5 9.8
2018-May-05 02:29N 29°23' W 092°54'5 9.6
2018-May-05 02:01N 29°25' W 092°59'5 9.8
2018-May-05 01:30N 29°27' W 093°04'510.0
2018-May-05 01:00N 29°30' W 093°08'510.1
2018-May-05 00:31N 29°33' W 093°13'510.1
2018-May-05 00:00N 29°34' W 093°19'610.1
2018-May-04 23:27N 29°35' W 093°25'510.1
2018-May-04 22:57N 29°35' W 093°31'410.1
2018-May-04 22:30N 29°36' W 093°36'510.0
2018-May-04 22:01N 29°36' W 093°42'5 9.2
2018-May-04 21:30N 29°36' W 093°47'3 6.7
2018-May-04 21:01N 29°39' W 093°50'4 8.5
2018-May-04 20:31N 29°43' W 093°51'5 9.2
2018-May-04 20:01N 29°46' W 093°55'4 8.1
2018-May-04 19:31N 29°50' W 093°57'4 7.8
2018-May-04 19:01N 29°53' W 093°55'4 7.9
2018-May-04 18:30N 29°56' W 093°52'3 6.8
2018-May-04 18:01N 29°59' W 093°50'4 8.0
2018-May-04 17:31N 30°01' W 093°46'4 7.1
2018-May-04 17:00N 30°03' W 093°43'1 2.3
2018-May-04 16:30N 30°04' W 093°43'0 0.0
2018-May-04 15:03N 30°04' W 093°43'0 1.2
2018-May-04 15:00N 30°04' W 093°43'0 0.0
2018-May-04 14:30N 30°04' W 093°43'0 0.0
2018-May-04 14:00N 30°04' W 093°43'0 0.0
2018-May-04 13:30N 30°04' W 093°43'0 0.0
2018-May-04 13:00N 30°04' W 093°43'0 0.0
2018-May-04 12:30N 30°04' W 093°43'0 0.0
2018-May-04 11:54N 30°04' W 093°43'0 0.0
2018-May-04 11:24N 30°04' W 093°43'0 0.0
2018-May-04 11:00N 30°04' W 093°43'0 0.0
2018-May-04 10:30N 30°04' W 093°43'0 0.0
2018-May-04 09:57N 30°04' W 093°43'0 0.0
2018-May-04 09:21N 30°04' W 093°43'0 0.0
2018-May-04 08:57N 30°04' W 093°43'0 0.0
2018-May-04 08:27N 30°04' W 093°43'0 0.0
2018-May-04 07:54N 30°04' W 093°43'0 0.0
2018-May-04 07:21N 30°04' W 093°43'0 0.0
2018-May-04 07:00N 30°04' W 093°43'0 0.0
2018-May-04 06:30N 30°04' W 093°43'0 0.0
2018-May-04 06:00N 30°04' W 093°43'0 0.0
2018-May-04 05:30N 30°04' W 093°43'0 0.0
2018-May-04 05:00N 30°04' W 093°43'0 0.0
2018-May-04 04:30N 30°04' W 093°43'0 0.0
2018-May-04 03:57N 30°04' W 093°43'0 0.0
2018-May-04 03:27N 30°04' W 093°43'0 0.0
2018-May-04 03:00N 30°04' W 093°43'0 0.0
2018-May-04 02:30N 30°04' W 093°43'0 0.0
2018-May-04 02:00N 30°04' W 093°43'0 0.0
2018-May-04 01:30N 30°04' W 093°43'0 0.0
2018-May-04 01:00N 30°04' W 093°43'0 0.0
2018-May-04 00:21N 30°04' W 093°43'0 0.0
2018-May-04 00:00N 30°04' W 093°43'0 0.0
2018-May-03 23:30N 30°04' W 093°43'0 0.0
2018-May-03 22:57N 30°04' W 093°43'0 0.0
2018-May-03 22:30N 30°04' W 093°43'0 0.0
2018-May-03 21:47N 30°04' W 093°43'1 4.1
2018-May-03 21:30N 30°03' W 093°43'5 9.6
2018-May-03 21:00N 29°60' W 093°47'4 8.7
2018-May-03 20:30N 29°58' W 093°51'4 7.7
2018-May-03 20:00N 29°55' W 093°53'4 8.8
2018-May-03 19:30N 29°51' W 093°57'5 9.3
2018-May-03 19:00N 29°47' W 093°56'4 8.6
2018-May-03 18:30N 29°44' W 093°52'0 0.8
2018-May-03 17:59N 29°44' W 093°52'0 0.0
2018-May-03 17:29N 29°44' W 093°52'0 0.0
2018-May-03 16:59N 29°44' W 093°52'0 0.0
2018-May-03 16:29N 29°44' W 093°52'0 0.0
2018-May-03 15:59N 29°44' W 093°52'0 0.0
2018-May-03 15:29N 29°44' W 093°52'0 0.0
2018-May-03 14:59N 29°44' W 093°52'0 0.0
2018-May-03 14:29N 29°44' W 093°52'0 0.0
2018-May-03 13:59N 29°44' W 093°52'0 0.0
2018-May-03 13:29N 29°44' W 093°52'0 0.0
2018-May-03 12:59N 29°44' W 093°52'0 0.0
2018-May-03 12:29N 29°44' W 093°52'0 0.0
2018-May-03 11:59N 29°44' W 093°52'0 0.0
2018-May-03 11:29N 29°44' W 093°52'0 0.0
2018-May-03 10:59N 29°44' W 093°52'0 0.0
2018-May-03 10:29N 29°44' W 093°52'0 0.0
2018-May-03 09:59N 29°44' W 093°52'0 0.0
2018-May-03 09:29N 29°44' W 093°52'0 0.0
2018-May-03 08:59N 29°44' W 093°52'0 0.0
2018-May-03 08:29N 29°44' W 093°52'0 0.0
2018-May-03 07:59N 29°44' W 093°52'0 0.0
2018-May-03 07:29N 29°44' W 093°52'0 0.0
2018-May-03 06:59N 29°44' W 093°52'0 0.0
2018-May-03 06:29N 29°44' W 093°52'0 0.0
2018-May-03 05:59N 29°44' W 093°52'0 0.0
2018-May-03 05:29N 29°44' W 093°52'0 0.0
2018-May-03 04:59N 29°44' W 093°52'0 0.0
2018-May-03 04:29N 29°44' W 093°52'0 0.0
2018-May-03 03:59N 29°44' W 093°52'0 0.0
2018-May-03 03:29N 29°44' W 093°52'0 0.0
2018-May-03 02:59N 29°44' W 093°52'0 0.0
2018-May-03 02:29N 29°44' W 093°52'0 0.0
2018-May-03 01:56N 29°44' W 093°52'0 0.0
2018-May-03 01:29N 29°44' W 093°52'0 0.0
2018-May-03 00:59N 29°44' W 093°52'0 0.0
2018-May-03 00:29N 29°44' W 093°52'0 0.0
2018-May-02 23:59N 29°44' W 093°52'0 0.0
2018-May-02 23:29N 29°44' W 093°52'0 0.0
2018-May-02 22:59N 29°44' W 093°52'0 0.0
2018-May-02 22:29N 29°44' W 093°52'0 0.0
2018-May-02 21:59N 29°44' W 093°52'0 0.0
2018-May-02 21:29N 29°44' W 093°52'0 0.0
2018-May-02 20:59N 29°44' W 093°52'0 0.0
2018-May-02 20:29N 29°44' W 093°52'0 0.0
2018-May-02 19:59N 29°44' W 093°52'0 0.0
2018-May-02 19:29N 29°44' W 093°52'0 0.0
2018-May-02 18:59N 29°44' W 093°52'0 0.0
2018-May-02 18:29N 29°44' W 093°52'0 0.0
2018-May-02 17:59N 29°44' W 093°52'0 0.0
2018-May-02 17:29N 29°44' W 093°52'0 0.0
2018-May-02 16:59N 29°44' W 093°52'0 0.0
2018-May-02 16:29N 29°44' W 093°52'0 0.0
2018-May-02 15:59N 29°44' W 093°52'0 0.0
2018-May-02 15:29N 29°44' W 093°52'0 0.0
2018-May-02 14:59N 29°44' W 093°52'0 0.0
2018-May-02 14:29N 29°44' W 093°52'0 0.0
2018-May-02 13:59N 29°44' W 093°52'0 0.0
2018-May-02 13:29N 29°44' W 093°52'0 0.0
2018-May-02 12:59N 29°44' W 093°52'0 0.0
2018-May-02 12:29N 29°44' W 093°52'0 0.0
2018-May-02 11:59N 29°44' W 093°52'0 0.0
2018-May-02 11:29N 29°44' W 093°52'0 0.0
2018-May-02 10:59N 29°44' W 093°52'0 0.0
2018-May-02 10:29N 29°44' W 093°52'0 0.0
2018-May-02 09:59N 29°44' W 093°52'0 0.0
2018-May-02 09:29N 29°44' W 093°52'0 0.0
2018-May-02 08:59N 29°44' W 093°52'0 0.0
2018-May-02 08:29N 29°44' W 093°52'0 0.0
2018-May-02 07:59N 29°44' W 093°52'0 0.0
2018-May-02 07:29N 29°44' W 093°52'0 0.0
2018-May-02 06:59N 29°44' W 093°52'0 0.0
2018-May-02 06:29N 29°44' W 093°52'0 0.0
2018-May-02 05:59N 29°44' W 093°52'0 0.0
2018-May-02 05:29N 29°44' W 093°52'0 0.0
2018-May-02 04:59N 29°44' W 093°52'0 0.0
2018-May-02 04:29N 29°44' W 093°52'0 0.0
2018-May-02 03:59N 29°44' W 093°52'0 0.0
2018-May-02 03:29N 29°44' W 093°52'0 0.0
2018-May-02 02:59N 29°44' W 093°52'0 0.0
2018-May-02 02:29N 29°44' W 093°52'0 0.0
2018-May-02 01:59N 29°44' W 093°52'0 0.0
2018-May-02 01:29N 29°44' W 093°52'0 0.0
2018-May-02 00:59N 29°44' W 093°52'0 0.0
2018-May-02 00:29N 29°44' W 093°52'0 0.0
2018-May-01 23:59N 29°44' W 093°52'0 0.0
2018-May-01 23:29N 29°44' W 093°52'0 0.0
2018-May-01 22:59N 29°44' W 093°52'0 0.0
2018-May-01 22:29N 29°44' W 093°52'0 0.0
2018-May-01 21:59N 29°44' W 093°52'0 0.0
2018-May-01 21:29N 29°44' W 093°52'0 0.0
2018-May-01 20:59N 29°44' W 093°52'0 0.0
2018-May-01 20:26N 29°44' W 093°52'0 0.0
2018-May-01 19:59N 29°44' W 093°52'0 0.0
2018-May-01 19:29N 29°44' W 093°52'0 0.0
2018-May-01 18:59N 29°44' W 093°52'0 0.0
2018-May-01 18:29N 29°44' W 093°52'0 0.0
2018-May-01 17:59N 29°44' W 093°52'0 0.0
2018-May-01 17:29N 29°44' W 093°52'0 0.0
2018-May-01 16:59N 29°44' W 093°52'0 0.0
2018-May-01 16:29N 29°44' W 093°52'0 0.0
2018-May-01 15:59N 29°44' W 093°52'0 0.0
2018-May-01 15:29N 29°44' W 093°52'0 0.0
2018-May-01 14:59N 29°44' W 093°52'0 0.0
2018-May-01 14:29N 29°44' W 093°52'0 0.0
2018-May-01 13:59N 29°44' W 093°52'0 0.0
2018-May-01 13:29N 29°44' W 093°52'0 0.0
2018-May-01 12:59N 29°44' W 093°52'0 0.0
2018-May-01 12:29N 29°44' W 093°52'0 0.0
2018-May-01 11:59N 29°44' W 093°52'0 0.0
2018-May-01 11:29N 29°44' W 093°52'0 0.0
2018-May-01 10:59N 29°44' W 093°52'0 0.0
2018-May-01 10:29N 29°44' W 093°52'0 0.0
2018-May-01 09:59N 29°44' W 093°52'0 0.0
2018-May-01 09:29N 29°44' W 093°52'0 0.0
2018-May-01 08:59N 29°44' W 093°52'0 0.0
2018-May-01 08:29N 29°44' W 093°52'0 0.0
2018-May-01 07:59N 29°44' W 093°52'0 0.0
2018-May-01 07:29N 29°44' W 093°52'0 0.0
2018-May-01 06:59N 29°44' W 093°52'0 0.0
2018-May-01 06:29N 29°44' W 093°52'0 0.0
2018-May-01 05:59N 29°44' W 093°52'0 0.0
2018-May-01 05:29N 29°44' W 093°52'0 0.0
2018-May-01 04:59N 29°44' W 093°52'0 0.0
2018-May-01 04:29N 29°44' W 093°52'0 0.0
2018-May-01 03:59N 29°44' W 093°52'0 0.0
2018-May-01 03:29N 29°44' W 093°52'0 0.0
2018-May-01 02:59N 29°44' W 093°52'0 0.0
2018-May-01 02:29N 29°44' W 093°52'0 0.0
2018-May-01 01:59N 29°44' W 093°52'0 0.0
2018-May-01 01:29N 29°44' W 093°52'0 0.0
2018-May-01 00:59N 29°44' W 093°52'0 0.0
2018-May-01 00:29N 29°44' W 093°52'0 0.0
2018-Apr-30 23:59N 29°44' W 093°52'0 0.0
2018-Apr-30 23:23N 29°44' W 093°52'0 0.0
2018-Apr-30 22:59N 29°44' W 093°52'0 0.0
2018-Apr-30 22:29N 29°44' W 093°52'0 0.0
2018-Apr-30 21:59N 29°44' W 093°52'0 0.0
2018-Apr-30 21:29N 29°44' W 093°52'0 0.0
2018-Apr-30 20:59N 29°44' W 093°52'0 0.0
2018-Apr-30 20:29N 29°44' W 093°52'0 0.0
2018-Apr-30 19:59N 29°44' W 093°52'0 0.0
2018-Apr-30 19:29N 29°44' W 093°52'0 0.0
2018-Apr-30 18:59N 29°44' W 093°52'0 0.0
2018-Apr-30 18:29N 29°44' W 093°52'0 0.0
2018-Apr-30 17:59N 29°44' W 093°52'0 0.0
2018-Apr-30 17:29N 29°44' W 093°52'0 0.0
2018-Apr-30 16:59N 29°44' W 093°52'0 0.0
2018-Apr-30 16:29N 29°44' W 093°52'0 0.0
2018-Apr-30 15:59N 29°44' W 093°52'0 0.0
2018-Apr-30 15:26N 29°44' W 093°52'0 0.0
2018-Apr-30 14:59N 29°44' W 093°52'0 0.0
2018-Apr-30 14:29N 29°44' W 093°52'0 0.0
2018-Apr-30 13:59N 29°44' W 093°52'0 0.0
2018-Apr-30 13:29N 29°44' W 093°52'0 0.0
2018-Apr-30 12:59N 29°44' W 093°52'0 0.0
2018-Apr-30 12:29N 29°44' W 093°52'0 0.0
2018-Apr-30 11:59N 29°44' W 093°52'0 0.0
2018-Apr-30 11:29N 29°44' W 093°52'0 0.0
2018-Apr-30 10:59N 29°44' W 093°52'0 0.0
2018-Apr-30 10:29N 29°44' W 093°52'0 0.0
2018-Apr-30 09:59N 29°44' W 093°52'0 0.0
2018-Apr-30 09:29N 29°44' W 093°52'0 0.0
2018-Apr-30 08:59N 29°44' W 093°52'0 0.0
2018-Apr-30 08:29N 29°44' W 093°52'0 0.0
2018-Apr-30 07:59N 29°44' W 093°52'0 0.0
2018-Apr-30 07:29N 29°44' W 093°52'0 0.0
2018-Apr-30 06:59N 29°44' W 093°52'0 0.0
2018-Apr-30 06:29N 29°44' W 093°52'0 0.0
2018-Apr-30 05:59N 29°44' W 093°52'0 0.0
2018-Apr-30 05:29N 29°44' W 093°52'0 0.0
2018-Apr-30 04:59N 29°44' W 093°52'0 0.0
2018-Apr-30 04:29N 29°44' W 093°52'0 0.0
2018-Apr-30 03:59N 29°44' W 093°52'0 0.0
2018-Apr-30 03:29N 29°44' W 093°52'0 0.0
2018-Apr-30 02:59N 29°44' W 093°52'0 0.0
2018-Apr-30 02:29N 29°44' W 093°52'0 0.0
2018-Apr-30 01:59N 29°44' W 093°52'0 0.0
2018-Apr-30 01:29N 29°44' W 093°52'0 0.0
2018-Apr-30 00:59N 29°44' W 093°52'0 0.0
2018-Apr-30 00:29N 29°44' W 093°52'0 0.0
2018-Apr-29 23:59N 29°44' W 093°52'0 0.0
2018-Apr-29 23:29N 29°44' W 093°52'0 0.0
2018-Apr-29 22:59N 29°44' W 093°52'0 0.0
2018-Apr-29 22:29N 29°44' W 093°52'0 0.0
2018-Apr-29 21:59N 29°44' W 093°52'0 0.0
2018-Apr-29 21:29N 29°44' W 093°52'0 0.0
2018-Apr-29 20:59N 29°44' W 093°52'0 0.0
2018-Apr-29 20:29N 29°44' W 093°52'0 0.0
2018-Apr-29 19:59N 29°44' W 093°52'0 0.0
2018-Apr-29 19:29N 29°44' W 093°52'0 0.0
2018-Apr-29 18:59N 29°44' W 093°52'0 0.0
2018-Apr-29 18:29N 29°44' W 093°52'0 0.0
2018-Apr-29 17:59N 29°44' W 093°52'0 0.0
2018-Apr-29 17:29N 29°44' W 093°52'0 0.0
2018-Apr-29 16:59N 29°44' W 093°52'0 0.0
2018-Apr-29 16:29N 29°44' W 093°52'0 0.0
2018-Apr-29 15:59N 29°44' W 093°52'0 0.0
2018-Apr-29 15:29N 29°44' W 093°52'0 0.0
2018-Apr-29 14:59N 29°44' W 093°52'0 0.0
2018-Apr-29 14:29N 29°44' W 093°52'0 0.0
2018-Apr-29 13:59N 29°44' W 093°52'0 0.0
2018-Apr-29 13:29N 29°44' W 093°52'0 0.0
2018-Apr-29 12:59N 29°44' W 093°52'0 0.0
2018-Apr-29 12:29N 29°44' W 093°52'0 0.0
2018-Apr-29 11:59N 29°44' W 093°52'0 0.0
2018-Apr-29 11:29N 29°44' W 093°52'0 0.0
2018-Apr-29 10:59N 29°44' W 093°52'0 0.0
2018-Apr-29 10:29N 29°44' W 093°52'0 0.0
2018-Apr-29 09:59N 29°44' W 093°52'0 0.0
2018-Apr-29 09:29N 29°44' W 093°52'0 0.0
2018-Apr-29 08:59N 29°44' W 093°52'0 0.0
2018-Apr-29 08:29N 29°44' W 093°52'0 0.0
2018-Apr-29 07:59N 29°44' W 093°52'0 0.0
2018-Apr-29 07:29N 29°44' W 093°52'0 0.0
2018-Apr-29 06:59N 29°44' W 093°52'0 0.0
2018-Apr-29 06:29N 29°44' W 093°52'0 0.0
2018-Apr-29 05:59N 29°44' W 093°52'0 0.0
2018-Apr-29 05:29N 29°44' W 093°52'0 0.0
2018-Apr-29 04:59N 29°44' W 093°52'0 0.0
2018-Apr-29 04:29N 29°44' W 093°52'0 0.0
2018-Apr-29 03:59N 29°44' W 093°52'0 0.0
2018-Apr-29 03:29N 29°44' W 093°52'0 0.0
2018-Apr-29 02:59N 29°44' W 093°52'0 0.0
2018-Apr-29 02:29N 29°44' W 093°52'0 0.0
2018-Apr-29 01:59N 29°44' W 093°52'0 0.0
2018-Apr-29 01:29N 29°44' W 093°52'0 0.0
2018-Apr-29 00:59N 29°44' W 093°52'0 0.0
2018-Apr-29 00:29N 29°44' W 093°52'0 0.0
2018-Apr-28 23:56N 29°44' W 093°52'0 0.0
2018-Apr-28 23:29N 29°44' W 093°52'0 0.0
2018-Apr-28 22:59N 29°44' W 093°52'0 0.0
2018-Apr-28 22:29N 29°44' W 093°52'0 0.0
2018-Apr-28 21:59N 29°44' W 093°52'0 0.0
2018-Apr-28 21:29N 29°44' W 093°52'0 0.0
2018-Apr-28 20:59N 29°44' W 093°52'0 0.0
2018-Apr-28 20:29N 29°44' W 093°52'0 0.0
2018-Apr-28 19:59N 29°44' W 093°52'0 0.0
2018-Apr-28 19:29N 29°44' W 093°52'0 0.0
2018-Apr-28 18:59N 29°44' W 093°52'0 0.0
2018-Apr-28 18:29N 29°44' W 093°52'0 0.0
2018-Apr-28 17:59N 29°44' W 093°52'0 0.0
2018-Apr-28 17:29N 29°44' W 093°52'0 0.0
2018-Apr-28 16:59N 29°44' W 093°52'0 0.0
2018-Apr-28 16:29N 29°44' W 093°52'0 0.0
2018-Apr-28 15:59N 29°44' W 093°52'0 0.0
2018-Apr-28 15:29N 29°44' W 093°52'0 0.0
2018-Apr-28 14:59N 29°44' W 093°52'0 0.0
2018-Apr-28 14:29N 29°44' W 093°52'0 0.0
2018-Apr-28 13:59N 29°44' W 093°52'0 0.0
2018-Apr-28 13:29N 29°44' W 093°52'0 0.0
2018-Apr-28 12:59N 29°44' W 093°52'  
Track history (hours):
 
Tides and Currents Weather Stations Pressure Air Temp Water Temp Dewpoint Dewpoint Depression Visibility Wind Speed Wind Dir Waves Ship Positions

Crosby Leader

Owner: Crosby Marine Transportation LLC, Golden Meadow, LA. More information available from US FCC via Universal Licensing System and Coast Guard Vessel Documentation Center.

Last reported at 2018-May-08 12:37 UTC. Time now 2018-May-24 08:12 UTC.
Position N 29°07' W 090°12'.
Warning: this ship's position is 15 days out of date.

Length 43 m.

Type: Tug. MMSI: 367441370.

Date/timePositionNaut miles runAvg speedWind from/ knotsBaromVisibWave heightAir tempDewpointWater temp
2018-May-08 12:37N 29°07' W 090°12'0 0.0
2018-May-08 12:23N 29°07' W 090°12'0 0.0
2018-May-08 10:40N 29°07' W 090°12'0 0.0
2018-May-08 10:31N 29°07' W 090°12'0 0.0
2018-May-08 10:00N 29°07' W 090°12'0 0.0
2018-May-08 09:30N 29°07' W 090°12'0 0.0
2018-May-08 09:00N 29°07' W 090°12'0 0.0
2018-May-08 08:30N 29°07' W 090°12'0 0.0
2018-May-08 08:01N 29°07' W 090°12'0 0.0
2018-May-08 07:31N 29°07' W 090°12'0 0.0
2018-May-08 07:00N 29°07' W 090°12'0 0.0
2018-May-08 06:30N 29°07' W 090°12'0 0.0
2018-May-08 06:00N 29°07' W 090°12'  
2018-May-05 03:18N 29°18' W 092°46'4 9.9
2018-May-05 02:56N 29°20' W 092°50'5 9.8
2018-May-05 02:29N 29°23' W 092°54'5 9.6
2018-May-05 02:01N 29°25' W 092°59'5 9.8
2018-May-05 01:30N 29°27' W 093°04'510.0
2018-May-05 01:00N 29°30' W 093°08'510.1
2018-May-05 00:31N 29°33' W 093°13'510.1
2018-May-05 00:00N 29°34' W 093°19'610.1
2018-May-04 23:27N 29°35' W 093°25'510.1
2018-May-04 22:57N 29°35' W 093°31'410.1
2018-May-04 22:30N 29°36' W 093°36'510.0
2018-May-04 22:01N 29°36' W 093°42'5 9.2
2018-May-04 21:30N 29°36' W 093°47'3 6.7
2018-May-04 21:01N 29°39' W 093°50'4 8.5
2018-May-04 20:31N 29°43' W 093°51'5 9.2
2018-May-04 20:01N 29°46' W 093°55'4 8.1
2018-May-04 19:31N 29°50' W 093°57'4 7.8
2018-May-04 19:01N 29°53' W 093°55'4 7.9
2018-May-04 18:30N 29°56' W 093°52'3 6.8
2018-May-04 18:01N 29°59' W 093°50'4 8.0
2018-May-04 17:31N 30°01' W 093°46'4 7.1
2018-May-04 17:00N 30°03' W 093°43'1 2.3
2018-May-04 16:30N 30°04' W 093°43'0 0.0
2018-May-04 15:03N 30°04' W 093°43'0 1.2
2018-May-04 15:00N 30°04' W 093°43'0 0.0
2018-May-04 14:30N 30°04' W 093°43'0 0.0
2018-May-04 14:00N 30°04' W 093°43'0 0.0
2018-May-04 13:30N 30°04' W 093°43'0 0.0
2018-May-04 13:00N 30°04' W 093°43'0 0.0
2018-May-04 12:30N 30°04' W 093°43'0 0.0
2018-May-04 11:54N 30°04' W 093°43'0 0.0
2018-May-04 11:24N 30°04' W 093°43'0 0.0
2018-May-04 11:00N 30°04' W 093°43'0 0.0
2018-May-04 10:30N 30°04' W 093°43'0 0.0
2018-May-04 09:57N 30°04' W 093°43'0 0.0
2018-May-04 09:21N 30°04' W 093°43'0 0.0
2018-May-04 08:57N 30°04' W 093°43'0 0.0
2018-May-04 08:27N 30°04' W 093°43'0 0.0
2018-May-04 07:54N 30°04' W 093°43'0 0.0
2018-May-04 07:21N 30°04' W 093°43'0 0.0
2018-May-04 07:00N 30°04' W 093°43'0 0.0
2018-May-04 06:30N 30°04' W 093°43'0 0.0
2018-May-04 06:00N 30°04' W 093°43'0 0.0
2018-May-04 05:30N 30°04' W 093°43'0 0.0
2018-May-04 05:00N 30°04' W 093°43'0 0.0
2018-May-04 04:30N 30°04' W 093°43'0 0.0
2018-May-04 03:57N 30°04' W 093°43'0 0.0
2018-May-04 03:27N 30°04' W 093°43'0 0.0
2018-May-04 03:00N 30°04' W 093°43'0 0.0
2018-May-04 02:30N 30°04' W 093°43'0 0.0
2018-May-04 02:00N 30°04' W 093°43'0 0.0
2018-May-04 01:30N 30°04' W 093°43'0 0.0
2018-May-04 01:00N 30°04' W 093°43'0 0.0
2018-May-04 00:21N 30°04' W 093°43'0 0.0
2018-May-04 00:00N 30°04' W 093°43'0 0.0
2018-May-03 23:30N 30°04' W 093°43'0 0.0
2018-May-03 22:57N 30°04' W 093°43'0 0.0
2018-May-03 22:30N 30°04' W 093°43'0 0.0
2018-May-03 21:47N 30°04' W 093°43'1 4.1
2018-May-03 21:30N 30°03' W 093°43'5 9.6
2018-May-03 21:00N 29°60' W 093°47'4 8.7
2018-May-03 20:30N 29°58' W 093°51'4 7.7
2018-May-03 20:00N 29°55' W 093°53'4 8.8
2018-May-03 19:30N 29°51' W 093°57'5 9.3
2018-May-03 19:00N 29°47' W 093°56'4 8.6
2018-May-03 18:30N 29°44' W 093°52'0 0.8
2018-May-03 17:59N 29°44' W 093°52'0 0.0
2018-May-03 17:29N 29°44' W 093°52'0 0.0
2018-May-03 16:59N 29°44' W 093°52'0 0.0
2018-May-03 16:29N 29°44' W 093°52'0 0.0
2018-May-03 15:59N 29°44' W 093°52'0 0.0
2018-May-03 15:29N 29°44' W 093°52'0 0.0
2018-May-03 14:59N 29°44' W 093°52'0 0.0
2018-May-03 14:29N 29°44' W 093°52'0 0.0
2018-May-03 13:59N 29°44' W 093°52'0 0.0
2018-May-03 13:29N 29°44' W 093°52'0 0.0
2018-May-03 12:59N 29°44' W 093°52'0 0.0
2018-May-03 12:29N 29°44' W 093°52'0 0.0
2018-May-03 11:59N 29°44' W 093°52'0 0.0
2018-May-03 11:29N 29°44' W 093°52'0 0.0
2018-May-03 10:59N 29°44' W 093°52'0 0.0
2018-May-03 10:29N 29°44' W 093°52'0 0.0
2018-May-03 09:59N 29°44' W 093°52'0 0.0
2018-May-03 09:29N 29°44' W 093°52'0 0.0
2018-May-03 08:59N 29°44' W 093°52'0 0.0
2018-May-03 08:29N 29°44' W 093°52'0 0.0
2018-May-03 07:59N 29°44' W 093°52'0 0.0
2018-May-03 07:29N 29°44' W 093°52'0 0.0
2018-May-03 06:59N 29°44' W 093°52'0 0.0
2018-May-03 06:29N 29°44' W 093°52'0 0.0
2018-May-03 05:59N 29°44' W 093°52'0 0.0
2018-May-03 05:29N 29°44' W 093°52'0 0.0
2018-May-03 04:59N 29°44' W 093°52'0 0.0
2018-May-03 04:29N 29°44' W 093°52'0 0.0
2018-May-03 03:59N 29°44' W 093°52'0 0.0
2018-May-03 03:29N 29°44' W 093°52'0 0.0
2018-May-03 02:59N 29°44' W 093°52'0 0.0
2018-May-03 02:29N 29°44' W 093°52'0 0.0
2018-May-03 01:56N 29°44' W 093°52'0 0.0
2018-May-03 01:29N 29°44' W 093°52'0 0.0
2018-May-03 00:59N 29°44' W 093°52'0 0.0
2018-May-03 00:29N 29°44' W 093°52'0 0.0
2018-May-02 23:59N 29°44' W 093°52'0 0.0
2018-May-02 23:29N 29°44' W 093°52'0 0.0
2018-May-02 22:59N 29°44' W 093°52'0 0.0
2018-May-02 22:29N 29°44' W 093°52'0 0.0
2018-May-02 21:59N 29°44' W 093°52'0 0.0
2018-May-02 21:29N 29°44' W 093°52'0 0.0
2018-May-02 20:59N 29°44' W 093°52'0 0.0
2018-May-02 20:29N 29°44' W 093°52'0 0.0
2018-May-02 19:59N 29°44' W 093°52'0 0.0
2018-May-02 19:29N 29°44' W 093°52'0 0.0
2018-May-02 18:59N 29°44' W 093°52'0 0.0
2018-May-02 18:29N 29°44' W 093°52'0 0.0
2018-May-02 17:59N 29°44' W 093°52'0 0.0
2018-May-02 17:29N 29°44' W 093°52'0 0.0
2018-May-02 16:59N 29°44' W 093°52'0 0.0
2018-May-02 16:29N 29°44' W 093°52'0 0.0
2018-May-02 15:59N 29°44' W 093°52'0 0.0
2018-May-02 15:29N 29°44' W 093°52'0 0.0
2018-May-02 14:59N 29°44' W 093°52'0 0.0
2018-May-02 14:29N 29°44' W 093°52'0 0.0
2018-May-02 13:59N 29°44' W 093°52'0 0.0
2018-May-02 13:29N 29°44' W 093°52'0 0.0
2018-May-02 12:59N 29°44' W 093°52'0 0.0
2018-May-02 12:29N 29°44' W 093°52'0 0.0
2018-May-02 11:59N 29°44' W 093°52'0 0.0
2018-May-02 11:29N 29°44' W 093°52'0 0.0
2018-May-02 10:59N 29°44' W 093°52'0 0.0
2018-May-02 10:29N 29°44' W 093°52'0 0.0
2018-May-02 09:59N 29°44' W 093°52'0 0.0
2018-May-02 09:29N 29°44' W 093°52'0 0.0
2018-May-02 08:59N 29°44' W 093°52'0 0.0
2018-May-02 08:29N 29°44' W 093°52'0 0.0
2018-May-02 07:59N 29°44' W 093°52'0 0.0
2018-May-02 07:29N 29°44' W 093°52'0 0.0
2018-May-02 06:59N 29°44' W 093°52'0 0.0
2018-May-02 06:29N 29°44' W 093°52'0 0.0
2018-May-02 05:59N 29°44' W 093°52'0 0.0
2018-May-02 05:29N 29°44' W 093°52'0 0.0
2018-May-02 04:59N 29°44' W 093°52'0 0.0
2018-May-02 04:29N 29°44' W 093°52'0 0.0
2018-May-02 03:59N 29°44' W 093°52'0 0.0
2018-May-02 03:29N 29°44' W 093°52'0 0.0
2018-May-02 02:59N 29°44' W 093°52'0 0.0
2018-May-02 02:29N 29°44' W 093°52'0 0.0
2018-May-02 01:59N 29°44' W 093°52'0 0.0
2018-May-02 01:29N 29°44' W 093°52'0 0.0
2018-May-02 00:59N 29°44' W 093°52'0 0.0
2018-May-02 00:29N 29°44' W 093°52'0 0.0
2018-May-01 23:59N 29°44' W 093°52'0 0.0
2018-May-01 23:29N 29°44' W 093°52'0 0.0
2018-May-01 22:59N 29°44' W 093°52'0 0.0
2018-May-01 22:29N 29°44' W 093°52'0 0.0
2018-May-01 21:59N 29°44' W 093°52'0 0.0
2018-May-01 21:29N 29°44' W 093°52'0 0.0
2018-May-01 20:59N 29°44' W 093°52'0 0.0
2018-May-01 20:26N 29°44' W 093°52'0 0.0
2018-May-01 19:59N 29°44' W 093°52'0 0.0
2018-May-01 19:29N 29°44' W 093°52'0 0.0
2018-May-01 18:59N 29°44' W 093°52'0 0.0
2018-May-01 18:29N 29°44' W 093°52'0 0.0
2018-May-01 17:59N 29°44' W 093°52'0 0.0
2018-May-01 17:29N 29°44' W 093°52'0 0.0
2018-May-01 16:59N 29°44' W 093°52'0 0.0
2018-May-01 16:29N 29°44' W 093°52'0 0.0
2018-May-01 15:59N 29°44' W 093°52'0 0.0
2018-May-01 15:29N 29°44' W 093°52'0 0.0
2018-May-01 14:59N 29°44' W 093°52'0 0.0
2018-May-01 14:29N 29°44' W 093°52'0 0.0
2018-May-01 13:59N 29°44' W 093°52'0 0.0
2018-May-01 13:29N 29°44' W 093°52'0 0.0
2018-May-01 12:59N 29°44' W 093°52'0 0.0
2018-May-01 12:29N 29°44' W 093°52'0 0.0
2018-May-01 11:59N 29°44' W 093°52'0 0.0
2018-May-01 11:29N 29°44' W 093°52'0 0.0
2018-May-01 10:59N 29°44' W 093°52'0 0.0
2018-May-01 10:29N 29°44' W 093°52'0 0.0
2018-May-01 09:59N 29°44' W 093°52'0 0.0
2018-May-01 09:29N 29°44' W 093°52'0 0.0
2018-May-01 08:59N 29°44' W 093°52'0 0.0
2018-May-01 08:29N 29°44' W 093°52'0 0.0
2018-May-01 07:59N 29°44' W 093°52'0 0.0
2018-May-01 07:29N 29°44' W 093°52'0 0.0
2018-May-01 06:59N 29°44' W 093°52'0 0.0
2018-May-01 06:29N 29°44' W 093°52'0 0.0
2018-May-01 05:59N 29°44' W 093°52'0 0.0
2018-May-01 05:29N 29°44' W 093°52'0 0.0
2018-May-01 04:59N 29°44' W 093°52'0 0.0
2018-May-01 04:29N 29°44' W 093°52'0 0.0
2018-May-01 03:59N 29°44' W 093°52'0 0.0
2018-May-01 03:29N 29°44' W 093°52'0 0.0
2018-May-01 02:59N 29°44' W 093°52'0 0.0
2018-May-01 02:29N 29°44' W 093°52'0 0.0
2018-May-01 01:59N 29°44' W 093°52'0 0.0
2018-May-01 01:29N 29°44' W 093°52'0 0.0
2018-May-01 00:59N 29°44' W 093°52'0 0.0
2018-May-01 00:29N 29°44' W 093°52'0 0.0
2018-Apr-30 23:59N 29°44' W 093°52'0 0.0
2018-Apr-30 23:23N 29°44' W 093°52'0 0.0
2018-Apr-30 22:59N 29°44' W 093°52'0 0.0
2018-Apr-30 22:29N 29°44' W 093°52'0 0.0
2018-Apr-30 21:59N 29°44' W 093°52'0 0.0
2018-Apr-30 21:29N 29°44' W 093°52'0 0.0
2018-Apr-30 20:59N 29°44' W 093°52'0 0.0
2018-Apr-30 20:29N 29°44' W 093°52'0 0.0
2018-Apr-30 19:59N 29°44' W 093°52'0 0.0
2018-Apr-30 19:29N 29°44' W 093°52'0 0.0
2018-Apr-30 18:59N 29°44' W 093°52'0 0.0
2018-Apr-30 18:29N 29°44' W 093°52'0 0.0
2018-Apr-30 17:59N 29°44' W 093°52'0 0.0
2018-Apr-30 17:29N 29°44' W 093°52'0 0.0
2018-Apr-30 16:59N 29°44' W 093°52'0 0.0
2018-Apr-30 16:29N 29°44' W 093°52'0 0.0
2018-Apr-30 15:59N 29°44' W 093°52'0 0.0
2018-Apr-30 15:26N 29°44' W 093°52'0 0.0
2018-Apr-30 14:59N 29°44' W 093°52'0 0.0
2018-Apr-30 14:29N 29°44' W 093°52'0 0.0
2018-Apr-30 13:59N 29°44' W 093°52'0 0.0
2018-Apr-30 13:29N 29°44' W 093°52'0 0.0
2018-Apr-30 12:59N 29°44' W 093°52'0 0.0
2018-Apr-30 12:29N 29°44' W 093°52'0 0.0
2018-Apr-30 11:59N 29°44' W 093°52'0 0.0
2018-Apr-30 11:29N 29°44' W 093°52'0 0.0
2018-Apr-30 10:59N 29°44' W 093°52'0 0.0
2018-Apr-30 10:29N 29°44' W 093°52'0 0.0
2018-Apr-30 09:59N 29°44' W 093°52'0 0.0
2018-Apr-30 09:29N 29°44' W 093°52'0 0.0
2018-Apr-30 08:59N 29°44' W 093°52'0 0.0
2018-Apr-30 08:29N 29°44' W 093°52'0 0.0
2018-Apr-30 07:59N 29°44' W 093°52'0 0.0
2018-Apr-30 07:29N 29°44' W 093°52'0 0.0
2018-Apr-30 06:59N 29°44' W 093°52'0 0.0
2018-Apr-30 06:29N 29°44' W 093°52'0 0.0
2018-Apr-30 05:59N 29°44' W 093°52'0 0.0
2018-Apr-30 05:29N 29°44' W 093°52'0 0.0
2018-Apr-30 04:59N 29°44' W 093°52'0 0.0
2018-Apr-30 04:29N 29°44' W 093°52'0 0.0
2018-Apr-30 03:59N 29°44' W 093°52'0 0.0
2018-Apr-30 03:29N 29°44' W 093°52'0 0.0
2018-Apr-30 02:59N 29°44' W 093°52'0 0.0
2018-Apr-30 02:29N 29°44' W 093°52'0 0.0
2018-Apr-30 01:59N 29°44' W 093°52'0 0.0
2018-Apr-30 01:29N 29°44' W 093°52'0 0.0
2018-Apr-30 00:59N 29°44' W 093°52'0 0.0
2018-Apr-30 00:29N 29°44' W 093°52'0 0.0
2018-Apr-29 23:59N 29°44' W 093°52'0 0.0
2018-Apr-29 23:29N 29°44' W 093°52'0 0.0
2018-Apr-29 22:59N 29°44' W 093°52'0 0.0
2018-Apr-29 22:29N 29°44' W 093°52'0 0.0
2018-Apr-29 21:59N 29°44' W 093°52'0 0.0
2018-Apr-29 21:29N 29°44' W 093°52'0 0.0
2018-Apr-29 20:59N 29°44' W 093°52'0 0.0
2018-Apr-29 20:29N 29°44' W 093°52'0 0.0
2018-Apr-29 19:59N 29°44' W 093°52'0 0.0
2018-Apr-29 19:29N 29°44' W 093°52'0 0.0
2018-Apr-29 18:59N 29°44' W 093°52'0 0.0
2018-Apr-29 18:29N 29°44' W 093°52'0 0.0
2018-Apr-29 17:59N 29°44' W 093°52'0 0.0
2018-Apr-29 17:29N 29°44' W 093°52'0 0.0
2018-Apr-29 16:59N 29°44' W 093°52'0 0.0
2018-Apr-29 16:29N 29°44' W 093°52'0 0.0
2018-Apr-29 15:59N 29°44' W 093°52'0 0.0
2018-Apr-29 15:29N 29°44' W 093°52'0 0.0
2018-Apr-29 14:59N 29°44' W 093°52'0 0.0
2018-Apr-29 14:29N 29°44' W 093°52'0 0.0
2018-Apr-29 13:59N 29°44' W 093°52'0 0.0
2018-Apr-29 13:29N 29°44' W 093°52'0 0.0
2018-Apr-29 12:59N 29°44' W 093°52'0 0.0
2018-Apr-29 12:29N 29°44' W 093°52'0 0.0
2018-Apr-29 11:59N 29°44' W 093°52'0 0.0
2018-Apr-29 11:29N 29°44' W 093°52'0 0.0
2018-Apr-29 10:59N 29°44' W 093°52'0 0.0
2018-Apr-29 10:29N 29°44' W 093°52'0 0.0
2018-Apr-29 09:59N 29°44' W 093°52'0 0.0
2018-Apr-29 09:29N 29°44' W 093°52'0 0.0
2018-Apr-29 08:59N 29°44' W 093°52'0 0.0
2018-Apr-29 08:29N 29°44' W 093°52'0 0.0
2018-Apr-29 07:59N 29°44' W 093°52'0 0.0
2018-Apr-29 07:29N 29°44' W 093°52'0 0.0
2018-Apr-29 06:59N 29°44' W 093°52'0 0.0
2018-Apr-29 06:29N 29°44' W 093°52'0 0.0
2018-Apr-29 05:59N 29°44' W 093°52'0 0.0
2018-Apr-29 05:29N 29°44' W 093°52'0 0.0
2018-Apr-29 04:59N 29°44' W 093°52'0 0.0
2018-Apr-29 04:29N 29°44' W 093°52'0 0.0
2018-Apr-29 03:59N 29°44' W 093°52'0 0.0
2018-Apr-29 03:29N 29°44' W 093°52'0 0.0
2018-Apr-29 02:59N 29°44' W 093°52'0 0.0
2018-Apr-29 02:29N 29°44' W 093°52'0 0.0
2018-Apr-29 01:59N 29°44' W 093°52'0 0.0
2018-Apr-29 01:29N 29°44' W 093°52'0 0.0
2018-Apr-29 00:59N 29°44' W 093°52'0 0.0
2018-Apr-29 00:29N 29°44' W 093°52'0 0.0
2018-Apr-28 23:56N 29°44' W 093°52'0 0.0
2018-Apr-28 23:29N 29°44' W 093°52'0 0.0
2018-Apr-28 22:59N 29°44' W 093°52'0 0.0
2018-Apr-28 22:29N 29°44' W 093°52'0 0.0
2018-Apr-28 21:59N 29°44' W 093°52'0 0.0
2018-Apr-28 21:29N 29°44' W 093°52'0 0.0
2018-Apr-28 20:59N 29°44' W 093°52'0 0.0
2018-Apr-28 20:29N 29°44' W 093°52'0 0.0
2018-Apr-28 19:59N 29°44' W 093°52'0 0.0
2018-Apr-28 19:29N 29°44' W 093°52'0 0.0
2018-Apr-28 18:59N 29°44' W 093°52'0 0.0
2018-Apr-28 18:29N 29°44' W 093°52'0 0.0
2018-Apr-28 17:59N 29°44' W 093°52'0 0.0
2018-Apr-28 17:29N 29°44' W 093°52'0 0.0
2018-Apr-28 16:59N 29°44' W 093°52'0 0.0
2018-Apr-28 16:29N 29°44' W 093°52'0 0.0
2018-Apr-28 15:59N 29°44' W 093°52'0 0.0
2018-Apr-28 15:29N 29°44' W 093°52'0 0.0
2018-Apr-28 14:59N 29°44' W 093°52'0 0.0
2018-Apr-28 14:29N 29°44' W 093°52'0 0.0
2018-Apr-28 13:59N 29°44' W 093°52'0 0.0
2018-Apr-28 13:29N 29°44' W 093°52'0 0.0
2018-Apr-28 12:59N 29°44' W 093°52'  

Dump ship's entire track history